createdAt,value
2022-10-01T00:00:10.570Z,38.1670
2022-10-01T00:00:21.641Z,38.0970
2022-10-01T00:00:32.769Z,38.0590
2022-10-01T00:00:43.886Z,38.0300
2022-10-01T00:00:54.949Z,37.9950
2022-10-01T00:01:06.361Z,38.0130
2022-10-01T00:01:17.506Z,38.0690
2022-10-01T00:01:28.608Z,38.0510
2022-10-01T00:01:39.818Z,38.0800
2022-10-01T00:01:50.919Z,38.0460
2022-10-01T00:02:02.018Z,38.0330
2022-10-01T00:02:13.116Z,38.0690
2022-10-01T00:02:24.207Z,38.0800
2022-10-01T00:02:35.392Z,38.0690
2022-10-01T00:02:46.577Z,38.0740
2022-10-01T00:02:57.822Z,38.0630
2022-10-01T00:03:09.135Z,38.0800
2022-10-01T00:03:20.270Z,38.0970
2022-10-01T00:03:31.361Z,38.0740
2022-10-01T00:03:42.474Z,38.0510
2022-10-01T00:03:53.564Z,38.0270
2022-10-01T00:04:04.616Z,38.0040
2022-10-01T00:04:15.698Z,37.9990
2022-10-01T00:04:26.752Z,37.9510
2022-10-01T00:04:37.912Z,37.9510
2022-10-01T00:04:48.947Z,37.9930
2022-10-01T00:05:21.008Z,38.0270
2022-10-01T00:05:32.055Z,38.5230
2022-10-01T00:05:43.138Z,38.2350
2022-10-01T00:05:54.178Z,38.1300
2022-10-01T00:06:05.238Z,38.0710
2022-10-01T00:06:16.301Z,38.0460
2022-10-01T00:06:27.362Z,38.0460
2022-10-01T00:06:38.412Z,38.0270
2022-10-01T00:06:49.475Z,38.0160
2022-10-01T00:07:00.511Z,38.0330
2022-10-01T00:07:11.575Z,38.0690
2022-10-01T00:07:22.651Z,38.0460
2022-10-01T00:07:33.701Z,38.0460
2022-10-01T00:07:44.751Z,38.0160
2022-10-01T00:07:55.939Z,37.9760
2022-10-01T00:08:06.981Z,37.9930
2022-10-01T00:08:18.031Z,38.0100
2022-10-01T00:08:29.123Z,38.0420
2022-10-01T00:08:40.207Z,38.0000
2022-10-01T00:08:51.273Z,37.9770
2022-10-01T00:09:02.338Z,37.9950
2022-10-01T00:09:13.391Z,37.9510
2022-10-01T00:09:24.433Z,37.9170
2022-10-01T00:09:35.496Z,37.8880
2022-10-01T00:09:46.562Z,37.8880
2022-10-01T00:09:57.736Z,37.8960
2022-10-01T00:10:08.801Z,37.9320
2022-10-01T00:10:19.871Z,37.9610
2022-10-01T00:10:30.911Z,37.9720
2022-10-01T00:10:41.951Z,37.9380
2022-10-01T00:10:53.019Z,37.8790
2022-10-01T00:11:04.081Z,37.9080
2022-10-01T00:11:15.122Z,37.9270
2022-10-01T00:11:26.197Z,37.9340
2022-10-01T00:11:37.259Z,37.9760
2022-10-01T00:11:48.302Z,37.9510
2022-10-01T00:11:59.361Z,37.8940
2022-10-01T00:12:10.421Z,37.8640
2022-10-01T00:12:21.471Z,37.8240
2022-10-01T00:12:32.615Z,37.7960
2022-10-01T00:12:43.700Z,37.7960
2022-10-01T00:12:54.741Z,37.7920
2022-10-01T00:13:05.844Z,37.8090
2022-10-01T00:13:16.894Z,37.8340
2022-10-01T00:13:28.043Z,37.8390
2022-10-01T00:13:39.112Z,37.8210
2022-10-01T00:13:50.171Z,37.7980
2022-10-01T00:14:01.241Z,37.7920
2022-10-01T00:14:12.292Z,37.7640
2022-10-01T00:14:23.362Z,37.7520
2022-10-01T00:14:34.412Z,37.7300
2022-10-01T00:14:45.473Z,37.7590
2022-10-01T00:14:56.533Z,37.7470
2022-10-01T00:15:09.771Z,37.7590
2022-10-01T00:15:22.951Z,37.9440
2022-10-01T00:15:33.991Z,37.9290
2022-10-01T00:15:45.051Z,37.8840
2022-10-01T00:15:56.123Z,37.8510
2022-10-01T00:16:07.230Z,37.8510
2022-10-01T00:16:18.368Z,37.8680
2022-10-01T00:16:29.492Z,37.8740
2022-10-01T00:16:40.560Z,37.8800
2022-10-01T00:16:51.628Z,37.8910
2022-10-01T00:17:02.697Z,37.8910
2022-10-01T00:17:13.721Z,37.8340
2022-10-01T00:17:24.795Z,37.8040
2022-10-01T00:17:35.853Z,37.8040
2022-10-01T00:17:46.903Z,37.8340
2022-10-01T00:17:57.972Z,37.7870
2022-10-01T00:18:09.052Z,37.7580
2022-10-01T00:18:20.101Z,37.7340
2022-10-01T00:18:31.171Z,37.7110
2022-10-01T00:18:42.229Z,37.6940
2022-10-01T00:18:53.302Z,37.6820
2022-10-01T00:19:04.352Z,37.6770
2022-10-01T00:19:15.411Z,37.6600
2022-10-01T00:19:26.479Z,37.6600
2022-10-01T00:19:37.542Z,37.6990
2022-10-01T00:19:48.601Z,37.7050
2022-10-01T00:19:59.670Z,37.7110
2022-10-01T00:20:14.478Z,37.7700
2022-10-01T00:20:26.015Z,37.9970
2022-10-01T00:20:37.035Z,37.8800
2022-10-01T00:20:48.082Z,37.7810
2022-10-01T00:20:59.152Z,37.7760
2022-10-01T00:21:10.221Z,37.7410
2022-10-01T00:21:21.295Z,37.7110
2022-10-01T00:21:32.625Z,37.6770
2022-10-01T00:21:44.072Z,37.6830
2022-10-01T00:21:55.132Z,37.6490
2022-10-01T00:22:06.191Z,37.6180
2022-10-01T00:22:17.311Z,37.5790
2022-10-01T00:22:28.429Z,37.5840
2022-10-01T00:22:39.491Z,37.5840
2022-10-01T00:22:50.552Z,37.6420
2022-10-01T00:23:01.611Z,37.6660
2022-10-01T00:23:12.722Z,37.6660
2022-10-01T00:23:23.799Z,37.6190
2022-10-01T00:23:34.870Z,37.6070
2022-10-01T00:23:45.932Z,37.5790
2022-10-01T00:23:56.981Z,37.5490
2022-10-01T00:24:08.042Z,37.5490
2022-10-01T00:24:19.111Z,37.5620
2022-10-01T00:24:30.180Z,37.5430
2022-10-01T00:24:41.233Z,37.5670
2022-10-01T00:24:52.303Z,37.5320
2022-10-01T00:25:03.386Z,37.5150
2022-10-01T00:25:14.442Z,37.5260
2022-10-01T00:25:25.489Z,37.5150
2022-10-01T00:25:36.552Z,37.5090
2022-10-01T00:25:47.601Z,37.4860
2022-10-01T00:25:58.662Z,37.5000
2022-10-01T00:26:09.717Z,37.5190
2022-10-01T00:26:20.762Z,37.5410
2022-10-01T00:26:31.821Z,37.6050
2022-10-01T00:26:42.862Z,37.5900
2022-10-01T00:26:53.921Z,37.5670
2022-10-01T00:27:04.991Z,37.5900
2022-10-01T00:27:16.051Z,37.6000
2022-10-01T00:27:27.081Z,37.6000
2022-10-01T00:27:38.141Z,37.6050
2022-10-01T00:27:49.286Z,37.6340
2022-10-01T00:28:00.433Z,37.6050
2022-10-01T00:28:11.556Z,37.5900
2022-10-01T00:28:22.687Z,37.6190
2022-10-01T00:28:33.722Z,37.6420
2022-10-01T00:28:44.761Z,37.6770
2022-10-01T00:28:55.821Z,37.6660
2022-10-01T00:29:06.874Z,37.6630
2022-10-01T00:29:17.924Z,37.6570
2022-10-01T00:29:29.051Z,37.6770
2022-10-01T00:29:40.155Z,37.6720
2022-10-01T00:29:51.202Z,37.5790
2022-10-01T00:30:02.282Z,37.5200
2022-10-01T00:30:13.341Z,37.5150
2022-10-01T00:30:24.401Z,37.5150
2022-10-01T00:30:40.139Z,37.5320
2022-10-01T00:30:52.418Z,37.7230
2022-10-01T00:31:03.545Z,37.7230
2022-10-01T00:31:14.669Z,37.6820
2022-10-01T00:31:25.859Z,37.7040
2022-10-01T00:31:37.620Z,37.6810
2022-10-01T00:31:49.266Z,37.6890
2022-10-01T00:32:00.469Z,37.6550
2022-10-01T00:32:11.560Z,37.6420
2022-10-01T00:32:22.611Z,37.6360
2022-10-01T00:32:33.659Z,37.6550
2022-10-01T00:32:44.768Z,37.6360
2022-10-01T00:32:55.802Z,37.6490
2022-10-01T00:33:06.862Z,37.6420
2022-10-01T00:33:17.922Z,37.6600
2022-10-01T00:33:29.013Z,37.6490
2022-10-01T00:33:40.071Z,37.6600
2022-10-01T00:33:51.147Z,37.6600
2022-10-01T00:34:02.239Z,37.6770
2022-10-01T00:34:13.310Z,37.6720
2022-10-01T00:34:24.351Z,37.6190
2022-10-01T00:34:35.431Z,37.5730
2022-10-01T00:34:46.500Z,37.5370
2022-10-01T00:34:57.569Z,37.5150
2022-10-01T00:35:08.631Z,37.5550
2022-10-01T00:35:19.672Z,37.5730
2022-10-01T00:35:30.775Z,37.5730
2022-10-01T00:35:41.852Z,37.5670
2022-10-01T00:35:52.920Z,37.5960
2022-10-01T00:36:03.981Z,37.5780
2022-10-01T00:36:15.081Z,37.5600
2022-10-01T00:36:26.198Z,37.5600
2022-10-01T00:36:37.300Z,37.5720
2022-10-01T00:36:48.351Z,37.5480
2022-10-01T00:36:59.430Z,37.5140
2022-10-01T00:37:10.561Z,37.5780
2022-10-01T00:37:21.638Z,37.6180
2022-10-01T00:37:32.672Z,37.6300
2022-10-01T00:37:43.712Z,37.5650
2022-10-01T00:37:54.771Z,37.5900
2022-10-01T00:38:05.815Z,37.5480
2022-10-01T00:38:16.881Z,37.4910
2022-10-01T00:38:27.952Z,37.4910
2022-10-01T00:38:39.037Z,37.5200
2022-10-01T00:38:50.071Z,37.5200
2022-10-01T00:39:01.158Z,37.5480
2022-10-01T00:39:12.229Z,37.4910
2022-10-01T00:39:23.312Z,37.4610
2022-10-01T00:39:34.432Z,37.4790
2022-10-01T00:39:45.502Z,37.5030
2022-10-01T00:39:56.561Z,37.5080
2022-10-01T00:40:07.631Z,37.4910
2022-10-01T00:40:18.711Z,37.4330
2022-10-01T00:40:29.771Z,37.4390
2022-10-01T00:40:40.832Z,37.4980
2022-10-01T00:40:51.882Z,37.5430
2022-10-01T00:41:02.922Z,37.5090
2022-10-01T00:41:13.961Z,37.4730
2022-10-01T00:41:25.030Z,37.4330
2022-10-01T00:41:36.304Z,37.4500
2022-10-01T00:41:47.593Z,37.4840
2022-10-01T00:41:58.652Z,37.4800
2022-10-01T00:42:09.722Z,37.4500
2022-10-01T00:42:20.789Z,37.4050
2022-10-01T00:42:31.833Z,37.4620
2022-10-01T00:42:42.892Z,37.4450
2022-10-01T00:42:53.951Z,37.4330
2022-10-01T00:43:04.992Z,37.3810
2022-10-01T00:43:16.042Z,37.3580
2022-10-01T00:43:27.089Z,37.4160
2022-10-01T00:43:38.151Z,37.4440
2022-10-01T00:43:49.248Z,37.4560
2022-10-01T00:44:00.322Z,37.4670
2022-10-01T00:44:11.392Z,37.4560
2022-10-01T00:44:22.431Z,37.4270
2022-10-01T00:44:33.505Z,37.4380
2022-10-01T00:44:44.569Z,37.4270
2022-10-01T00:44:55.649Z,37.3970
2022-10-01T00:45:06.712Z,37.3800
2022-10-01T00:45:17.774Z,37.3750
2022-10-01T00:45:28.907Z,37.3350
2022-10-01T00:45:39.966Z,37.2880
2022-10-01T00:45:51.076Z,37.2420
2022-10-01T00:46:02.237Z,37.2530
2022-10-01T00:46:13.414Z,37.2240
2022-10-01T00:46:24.522Z,37.2070
2022-10-01T00:46:35.647Z,37.2130
2022-10-01T00:46:46.722Z,37.2490
2022-10-01T00:46:57.829Z,37.2750
2022-10-01T00:47:08.881Z,37.2810
2022-10-01T00:47:19.950Z,37.2920
2022-10-01T00:47:31.082Z,37.2860
2022-10-01T00:47:42.143Z,37.3110
2022-10-01T00:47:53.214Z,37.3450
2022-10-01T00:48:04.271Z,37.4070
2022-10-01T00:48:15.351Z,37.4130
2022-10-01T00:48:26.418Z,37.3850
2022-10-01T00:48:37.472Z,37.4130
2022-10-01T00:48:48.542Z,37.4470
2022-10-01T00:48:59.637Z,37.4510
2022-10-01T00:49:10.681Z,37.4510
2022-10-01T00:49:21.739Z,37.4620
2022-10-01T00:49:32.802Z,37.4620
2022-10-01T00:49:43.866Z,37.4680
2022-10-01T00:49:59.217Z,37.4510
2022-10-01T00:50:10.640Z,37.6460
2022-10-01T00:50:21.681Z,37.5760
2022-10-01T00:50:32.752Z,37.5020
2022-10-01T00:50:43.845Z,37.4710
2022-10-01T00:50:54.892Z,37.4470
2022-10-01T00:51:05.954Z,37.3960
2022-10-01T00:51:17.012Z,37.3430
2022-10-01T00:51:28.042Z,37.3030
2022-10-01T00:51:39.112Z,37.2600
2022-10-01T00:51:50.178Z,37.2600
2022-10-01T00:52:01.240Z,37.2830
2022-10-01T00:52:12.302Z,37.3000
2022-10-01T00:52:23.371Z,37.2890
2022-10-01T00:52:34.450Z,37.2830
2022-10-01T00:52:45.526Z,37.2770
2022-10-01T00:52:56.592Z,37.3170
2022-10-01T00:53:07.656Z,37.3850
2022-10-01T00:53:18.722Z,37.3430
2022-10-01T00:53:29.761Z,37.2960
2022-10-01T00:53:40.832Z,37.2790
2022-10-01T00:53:51.899Z,37.2720
2022-10-01T00:54:03.015Z,37.3150
2022-10-01T00:54:14.061Z,37.2790
2022-10-01T00:54:25.131Z,37.2280
2022-10-01T00:54:36.192Z,37.2280
2022-10-01T00:54:47.252Z,37.2220
2022-10-01T00:54:58.292Z,37.2420
2022-10-01T00:55:09.363Z,37.2770
2022-10-01T00:55:20.440Z,37.2290
2022-10-01T00:55:31.487Z,37.2340
2022-10-01T00:55:42.559Z,37.2740
2022-10-01T00:55:53.640Z,37.3270
2022-10-01T00:56:04.703Z,37.3500
2022-10-01T00:56:15.791Z,37.3380
2022-10-01T00:56:26.831Z,37.3100
2022-10-01T00:56:37.892Z,37.2740
2022-10-01T00:56:48.968Z,37.2630
2022-10-01T00:57:00.031Z,37.2570
2022-10-01T00:57:11.081Z,37.2680
2022-10-01T00:57:22.152Z,37.3100
2022-10-01T00:57:33.211Z,37.3210
2022-10-01T00:57:44.290Z,37.3330
2022-10-01T00:57:55.341Z,37.3330
2022-10-01T00:58:06.412Z,37.3330
2022-10-01T00:58:17.481Z,37.3100
2022-10-01T00:58:28.541Z,37.2800
2022-10-01T00:58:39.581Z,37.3270
2022-10-01T00:58:50.642Z,37.3500
2022-10-01T00:59:01.705Z,37.3380
2022-10-01T00:59:12.781Z,37.3290
2022-10-01T00:59:23.842Z,37.3030
2022-10-01T00:59:34.883Z,37.2790
2022-10-01T00:59:45.952Z,37.2450
2022-10-01T00:59:57.022Z,37.2280
2022-10-01T01:00:08.081Z,37.1920
2022-10-01T01:00:19.141Z,37.1700
2022-10-01T01:00:30.213Z,37.1470
2022-10-01T01:00:41.281Z,37.1550
2022-10-01T01:00:52.444Z,37.2130
2022-10-01T01:01:03.562Z,37.2420
2022-10-01T01:01:14.684Z,37.2770
2022-10-01T01:01:25.806Z,37.2720
2022-10-01T01:01:37.392Z,37.2300
2022-10-01T01:01:49.088Z,37.2550
2022-10-01T01:02:00.488Z,37.2400
2022-10-01T01:02:11.618Z,37.2120
2022-10-01T01:02:22.740Z,37.1870
2022-10-01T01:02:33.954Z,37.1960
2022-10-01T01:02:45.080Z,37.2130
2022-10-01T01:02:56.206Z,37.2060
2022-10-01T01:03:07.242Z,37.2510
2022-10-01T01:03:18.285Z,37.2630
2022-10-01T01:03:29.321Z,37.2400
2022-10-01T01:03:40.382Z,37.2460
2022-10-01T01:03:51.460Z,37.2290
2022-10-01T01:04:02.521Z,37.2460
2022-10-01T01:04:13.612Z,37.2630
2022-10-01T01:04:24.679Z,37.2630
2022-10-01T01:04:35.742Z,37.2510
2022-10-01T01:04:46.811Z,37.2400
2022-10-01T01:04:57.862Z,37.1820
2022-10-01T01:05:08.955Z,37.1820
2022-10-01T01:05:19.994Z,37.2060
2022-10-01T01:05:31.079Z,37.2510
2022-10-01T01:05:42.123Z,37.2510
2022-10-01T01:05:53.206Z,37.2510
2022-10-01T01:06:04.224Z,37.2460
2022-10-01T01:06:15.281Z,37.2630
2022-10-01T01:06:26.352Z,37.2850
2022-10-01T01:06:37.420Z,37.2980
2022-10-01T01:06:48.481Z,37.3210
2022-10-01T01:06:59.552Z,37.3440
2022-10-01T01:07:10.598Z,37.3380
2022-10-01T01:07:21.632Z,37.3440
2022-10-01T01:07:32.703Z,37.3380
2022-10-01T01:07:43.779Z,37.3210
2022-10-01T01:07:54.834Z,37.2800
2022-10-01T01:08:05.892Z,37.2460
2022-10-01T01:08:16.952Z,37.2400
2022-10-01T01:08:27.991Z,37.2360
2022-10-01T01:08:39.088Z,37.2020
2022-10-01T01:08:50.151Z,37.2020
2022-10-01T01:09:01.213Z,37.2080
2022-10-01T01:09:12.280Z,37.2170
2022-10-01T01:09:23.371Z,37.2340
2022-10-01T01:09:34.439Z,37.2340
2022-10-01T01:09:45.502Z,37.1920
2022-10-01T01:09:56.564Z,37.1980
2022-10-01T01:10:07.621Z,37.2040
2022-10-01T01:10:18.691Z,37.2040
2022-10-01T01:10:29.761Z,37.2170
2022-10-01T01:10:40.939Z,37.1960
2022-10-01T01:10:52.022Z,37.1550
2022-10-01T01:11:03.073Z,37.1530
2022-10-01T01:11:14.131Z,37.1530
2022-10-01T01:11:25.172Z,37.2020
2022-10-01T01:11:36.512Z,37.1740
2022-10-01T01:11:47.912Z,37.1790
2022-10-01T01:11:58.972Z,37.1820
2022-10-01T01:12:10.031Z,37.1650
2022-10-01T01:12:21.071Z,37.1930
2022-10-01T01:12:32.131Z,37.2170
2022-10-01T01:12:43.202Z,37.2290
2022-10-01T01:12:54.243Z,37.2290
2022-10-01T01:13:05.311Z,37.2060
2022-10-01T01:13:16.390Z,37.1870
2022-10-01T01:13:27.451Z,37.1420
2022-10-01T01:13:38.512Z,37.1060
2022-10-01T01:13:49.588Z,37.1210
2022-10-01T01:14:00.641Z,37.1550
2022-10-01T01:14:11.701Z,37.1680
2022-10-01T01:14:22.751Z,37.1700
2022-10-01T01:14:33.853Z,37.1350
2022-10-01T01:14:45.105Z,37.0660
2022-10-01T01:14:56.169Z,37.0420
2022-10-01T01:15:07.237Z,37.0250
2022-10-01T01:15:18.302Z,37.0870
2022-10-01T01:15:29.564Z,37.1210
2022-10-01T01:15:40.670Z,37.0950
2022-10-01T01:15:51.792Z,37.0550
2022-10-01T01:16:02.931Z,37.0610
2022-10-01T01:16:14.018Z,37.0780
2022-10-01T01:16:25.154Z,37.0820
2022-10-01T01:16:36.249Z,37.0820
2022-10-01T01:16:47.330Z,37.0820
2022-10-01T01:16:58.399Z,37.0700
2022-10-01T01:17:09.472Z,37.0930
2022-10-01T01:17:20.552Z,37.1040
2022-10-01T01:17:31.622Z,37.1330
2022-10-01T01:17:42.693Z,37.1500
2022-10-01T01:17:53.760Z,37.1330
2022-10-01T01:18:04.847Z,37.1160
2022-10-01T01:18:15.920Z,37.1100
2022-10-01T01:18:26.982Z,37.1040
2022-10-01T01:18:38.051Z,37.1100
2022-10-01T01:18:49.122Z,37.1100
2022-10-01T01:19:00.191Z,37.0410
2022-10-01T01:19:11.261Z,37.0060
2022-10-01T01:19:22.329Z,37.0630
2022-10-01T01:19:33.391Z,37.0870
2022-10-01T01:19:44.472Z,37.0760
2022-10-01T01:19:55.552Z,37.0930
2022-10-01T01:20:06.611Z,37.0700
2022-10-01T01:20:17.679Z,37.0580
2022-10-01T01:20:28.776Z,36.9950
2022-10-01T01:20:39.823Z,36.9420
2022-10-01T01:20:50.882Z,36.9260
2022-10-01T01:21:01.945Z,36.9310
2022-10-01T01:21:12.991Z,36.9840
2022-10-01T01:21:24.052Z,36.9540
2022-10-01T01:21:35.353Z,36.9590
2022-10-01T01:21:46.620Z,36.9800
2022-10-01T01:21:57.682Z,36.9740
2022-10-01T01:22:08.752Z,36.9800
2022-10-01T01:22:19.823Z,36.9510
2022-10-01T01:22:30.872Z,36.9270
2022-10-01T01:22:41.951Z,36.9080
2022-10-01T01:22:53.002Z,36.8840
2022-10-01T01:23:04.041Z,36.8900
2022-10-01T01:23:15.082Z,36.9080
2022-10-01T01:23:26.129Z,36.9080
2022-10-01T01:23:37.201Z,36.9080
2022-10-01T01:23:48.241Z,36.9030
2022-10-01T01:23:59.310Z,36.8960
2022-10-01T01:24:10.375Z,36.9420
2022-10-01T01:24:21.442Z,37.0180
2022-10-01T01:24:32.520Z,37.0820
2022-10-01T01:24:43.588Z,37.0550
2022-10-01T01:24:54.663Z,37.0660
2022-10-01T01:25:05.724Z,37.0490
2022-10-01T01:25:16.795Z,37.0720
2022-10-01T01:25:27.902Z,37.0660
2022-10-01T01:25:38.972Z,37.0610
2022-10-01T01:25:50.032Z,37.0440
2022-10-01T01:26:01.093Z,37.0440
2022-10-01T01:26:12.171Z,37.0200
2022-10-01T01:26:23.233Z,37.0060
2022-10-01T01:26:34.283Z,37.0380
2022-10-01T01:26:45.321Z,37.0830
2022-10-01T01:26:56.371Z,37.0490
2022-10-01T01:27:07.432Z,36.9970
2022-10-01T01:27:18.502Z,36.9740
2022-10-01T01:27:29.592Z,36.9910
2022-10-01T01:27:40.682Z,37.0030
2022-10-01T01:27:51.799Z,37.0140
2022-10-01T01:28:02.911Z,36.9740
2022-10-01T01:28:14.143Z,36.9910
2022-10-01T01:28:25.261Z,37.0030
2022-10-01T01:28:36.322Z,36.9860
2022-10-01T01:28:47.392Z,36.9140
2022-10-01T01:28:58.441Z,36.9140
2022-10-01T01:29:09.481Z,36.9540
2022-10-01T01:29:20.542Z,36.9740
2022-10-01T01:29:31.620Z,36.9770
2022-10-01T01:29:42.682Z,36.9770
2022-10-01T01:29:53.723Z,36.9890
2022-10-01T01:30:04.816Z,37.0350
2022-10-01T01:30:15.881Z,37.0460
2022-10-01T01:30:26.943Z,37.0520
2022-10-01T01:30:38.004Z,37.0200
2022-10-01T01:30:49.103Z,36.9630
2022-10-01T01:31:00.239Z,36.9270
2022-10-01T01:31:11.368Z,36.9330
2022-10-01T01:31:22.576Z,36.9310
2022-10-01T01:31:34.112Z,36.9140
2022-10-01T01:31:45.312Z,36.9260
2022-10-01T01:31:56.390Z,36.8900
2022-10-01T01:32:11.435Z,36.8870
2022-10-01T01:32:24.412Z,37.1040
2022-10-01T01:32:35.481Z,37.0580
2022-10-01T01:32:46.551Z,37.0230
2022-10-01T01:32:57.611Z,37.0290
2022-10-01T01:33:08.682Z,37.0350
2022-10-01T01:33:19.722Z,37.0630
2022-10-01T01:33:30.782Z,37.0520
2022-10-01T01:33:41.851Z,37.0520
2022-10-01T01:33:52.921Z,37.0520
2022-10-01T01:34:03.990Z,37.0410
2022-10-01T01:34:15.052Z,37.0520
2022-10-01T01:34:26.112Z,37.0700
2022-10-01T01:34:37.157Z,37.0820
2022-10-01T01:34:48.259Z,37.0520
2022-10-01T01:34:59.322Z,37.0230
2022-10-01T01:35:10.412Z,36.9840
2022-10-01T01:35:21.521Z,36.9540
2022-10-01T01:35:32.591Z,36.9310
2022-10-01T01:35:43.650Z,36.9200
2022-10-01T01:35:54.713Z,36.9770
2022-10-01T01:36:05.775Z,36.9440
2022-10-01T01:36:16.824Z,36.9440
2022-10-01T01:36:27.872Z,36.9630
2022-10-01T01:36:39.071Z,36.9680
2022-10-01T01:36:50.122Z,36.9800
2022-10-01T01:37:01.161Z,36.9440
2022-10-01T01:37:12.236Z,36.9330
2022-10-01T01:37:23.292Z,36.9050
2022-10-01T01:37:34.393Z,36.8930
2022-10-01T01:37:45.472Z,36.9100
2022-10-01T01:37:56.512Z,36.9440
2022-10-01T01:38:07.551Z,36.9860
2022-10-01T01:38:18.591Z,36.9740
2022-10-01T01:38:29.632Z,36.9630
2022-10-01T01:38:40.674Z,36.9440
2022-10-01T01:38:51.741Z,36.9420
2022-10-01T01:39:02.802Z,36.9710
2022-10-01T01:39:13.871Z,36.9590
2022-10-01T01:39:24.953Z,36.9740
2022-10-01T01:39:36.001Z,36.9910
2022-10-01T01:39:47.069Z,36.9970
2022-10-01T01:39:58.129Z,36.9860
2022-10-01T01:40:09.191Z,36.9930
2022-10-01T01:40:20.282Z,36.9820
2022-10-01T01:40:31.331Z,36.9820
2022-10-01T01:40:42.391Z,36.9650
2022-10-01T01:40:53.452Z,36.9470
2022-10-01T01:41:04.511Z,36.8980
2022-10-01T01:41:15.561Z,36.8630
2022-10-01T01:41:26.631Z,36.8810
2022-10-01T01:41:37.724Z,36.8780
2022-10-01T01:41:48.787Z,36.8840
2022-10-01T01:41:59.840Z,36.8890
2022-10-01T01:42:10.883Z,36.8870
2022-10-01T01:42:21.941Z,36.8930
2022-10-01T01:42:32.996Z,36.8820
2022-10-01T01:42:44.068Z,36.8460
2022-10-01T01:42:55.130Z,36.8580
2022-10-01T01:43:06.192Z,36.8760
2022-10-01T01:43:17.252Z,36.9220
2022-10-01T01:43:28.312Z,36.9570
2022-10-01T01:43:39.371Z,36.9680
2022-10-01T01:43:50.431Z,36.9570
2022-10-01T01:44:01.472Z,36.9440
2022-10-01T01:44:12.514Z,36.8990
2022-10-01T01:44:23.571Z,36.9050
2022-10-01T01:44:34.641Z,36.8820
2022-10-01T01:44:45.721Z,36.8870
2022-10-01T01:44:56.753Z,36.8710
2022-10-01T01:45:07.812Z,36.8460
2022-10-01T01:45:18.881Z,36.8870
2022-10-01T01:45:30.011Z,36.9330
2022-10-01T01:45:41.117Z,36.9100
2022-10-01T01:45:52.309Z,36.8900
2022-10-01T01:46:03.584Z,36.8790
2022-10-01T01:46:14.662Z,36.8560
2022-10-01T01:46:25.713Z,36.8730
2022-10-01T01:46:36.781Z,36.8900
2022-10-01T01:46:47.842Z,36.8840
2022-10-01T01:46:58.911Z,36.9080
2022-10-01T01:47:09.980Z,36.9200
2022-10-01T01:47:21.049Z,36.9310
2022-10-01T01:47:32.102Z,36.9140
2022-10-01T01:47:43.163Z,36.9420
2022-10-01T01:47:54.223Z,36.9260
2022-10-01T01:48:05.292Z,36.9540
2022-10-01T01:48:16.351Z,36.9420
2022-10-01T01:48:27.421Z,36.9420
2022-10-01T01:48:38.491Z,36.9590
2022-10-01T01:48:49.552Z,36.9420
2022-10-01T01:49:00.612Z,36.9540
2022-10-01T01:49:11.681Z,36.9540
2022-10-01T01:49:22.755Z,36.9650
2022-10-01T01:49:33.809Z,36.9590
2022-10-01T01:49:44.872Z,37.0060
2022-10-01T01:49:55.919Z,37.0060
2022-10-01T01:50:06.980Z,37.0010
2022-10-01T01:50:18.042Z,36.9800
2022-10-01T01:50:29.138Z,36.9390
2022-10-01T01:50:40.211Z,36.9440
2022-10-01T01:50:51.272Z,36.9800
2022-10-01T01:51:02.331Z,36.9440
2022-10-01T01:51:13.415Z,36.9160
2022-10-01T01:51:24.463Z,36.9220
2022-10-01T01:51:35.920Z,36.9510
2022-10-01T01:51:47.282Z,37.0030
2022-10-01T01:51:58.341Z,36.9860
2022-10-01T01:52:09.398Z,36.9800
2022-10-01T01:52:20.433Z,37.0000
2022-10-01T01:52:31.504Z,36.9650
2022-10-01T01:52:42.572Z,36.9700
2022-10-01T01:52:53.650Z,36.9440
2022-10-01T01:53:04.692Z,36.9390
2022-10-01T01:53:15.751Z,36.9510
2022-10-01T01:53:26.810Z,36.9570
2022-10-01T01:53:37.881Z,36.9800
2022-10-01T01:53:48.948Z,36.9910
2022-10-01T01:54:00.002Z,36.9630
2022-10-01T01:54:11.062Z,36.9680
2022-10-01T01:54:22.112Z,36.9570
2022-10-01T01:54:33.172Z,36.9440
2022-10-01T01:54:44.231Z,36.9330
2022-10-01T01:54:55.302Z,36.9160
2022-10-01T01:55:06.362Z,36.8870
2022-10-01T01:55:17.442Z,36.8710
2022-10-01T01:55:28.512Z,36.8410
2022-10-01T01:55:39.551Z,36.8160
2022-10-01T01:55:50.641Z,36.8560
2022-10-01T01:56:01.701Z,36.9080
2022-10-01T01:56:12.779Z,36.8960
2022-10-01T01:56:23.842Z,36.9030
2022-10-01T01:56:34.941Z,36.9480
2022-10-01T01:56:46.001Z,36.9650
2022-10-01T01:56:57.051Z,36.9590
2022-10-01T01:57:08.112Z,36.8900
2022-10-01T01:57:19.179Z,36.8650
2022-10-01T01:57:30.242Z,36.8760
2022-10-01T01:57:41.309Z,36.8930
2022-10-01T01:57:52.361Z,36.9050
2022-10-01T01:58:03.440Z,36.8990
2022-10-01T01:58:14.502Z,36.8930
2022-10-01T01:58:25.583Z,36.8410
2022-10-01T01:58:36.636Z,36.8330
2022-10-01T01:58:47.692Z,36.7980
2022-10-01T01:58:58.780Z,36.7920
2022-10-01T01:59:09.863Z,36.8220
2022-10-01T01:59:20.929Z,36.8730
2022-10-01T01:59:31.982Z,36.8620
2022-10-01T01:59:43.052Z,36.8960
2022-10-01T01:59:54.104Z,36.9080
2022-10-01T02:00:05.154Z,36.9140
2022-10-01T02:00:16.219Z,36.8790
2022-10-01T02:00:27.261Z,36.8280
2022-10-01T02:00:38.331Z,36.7750
2022-10-01T02:00:49.402Z,36.8030
2022-10-01T02:01:00.484Z,36.8090
2022-10-01T02:01:11.581Z,36.8220
2022-10-01T02:01:22.623Z,36.7920
2022-10-01T02:01:34.059Z,36.8030
2022-10-01T02:01:45.433Z,36.8620
2022-10-01T02:01:56.636Z,36.8670
2022-10-01T02:02:07.827Z,36.8840
2022-10-01T02:02:18.941Z,36.8960
2022-10-01T02:02:30.035Z,36.9140
2022-10-01T02:02:41.163Z,36.9260
2022-10-01T02:02:52.278Z,36.9200
2022-10-01T02:03:03.354Z,36.9370
2022-10-01T02:03:14.387Z,36.9650
2022-10-01T02:03:25.441Z,36.9260
2022-10-01T02:03:36.498Z,36.9080
2022-10-01T02:03:47.552Z,36.8900
2022-10-01T02:03:58.626Z,36.8930
2022-10-01T02:04:09.681Z,36.8710
2022-10-01T02:04:20.742Z,36.8650
2022-10-01T02:04:31.813Z,36.8580
2022-10-01T02:04:42.869Z,36.8290
2022-10-01T02:04:53.916Z,36.7950
2022-10-01T02:05:04.980Z,36.8070
2022-10-01T02:05:16.065Z,36.7900
2022-10-01T02:05:27.129Z,36.7710
2022-10-01T02:05:38.200Z,36.7430
2022-10-01T02:05:49.252Z,36.7140
2022-10-01T02:06:00.313Z,36.6730
2022-10-01T02:06:11.412Z,36.6560
2022-10-01T02:06:22.496Z,36.6770
2022-10-01T02:06:33.549Z,36.6880
2022-10-01T02:06:44.611Z,36.7170
2022-10-01T02:06:55.682Z,36.7810
2022-10-01T02:07:06.745Z,36.7810
2022-10-01T02:07:17.791Z,36.7580
2022-10-01T02:07:28.870Z,36.7350
2022-10-01T02:07:40.008Z,36.7170
2022-10-01T02:07:51.073Z,36.7170
2022-10-01T02:08:02.141Z,36.7000
2022-10-01T02:08:13.209Z,36.7000
2022-10-01T02:08:24.262Z,36.7350
2022-10-01T02:08:35.324Z,36.7410
2022-10-01T02:08:46.382Z,36.7470
2022-10-01T02:08:57.431Z,36.7410
2022-10-01T02:09:08.491Z,36.7300
2022-10-01T02:09:19.648Z,36.7410
2022-10-01T02:09:30.681Z,36.7810
2022-10-01T02:09:41.753Z,36.7960
2022-10-01T02:09:52.822Z,36.7960
2022-10-01T02:10:03.871Z,36.8130
2022-10-01T02:10:14.925Z,36.8130
2022-10-01T02:10:25.969Z,36.8070
2022-10-01T02:10:37.031Z,36.8020
2022-10-01T02:10:48.094Z,36.7730
2022-10-01T02:10:59.158Z,36.7430
2022-10-01T02:11:10.216Z,36.7320
2022-10-01T02:11:21.271Z,36.7210
2022-10-01T02:11:32.643Z,36.7170
2022-10-01T02:11:44.042Z,36.7470
2022-10-01T02:11:55.102Z,36.7470
2022-10-01T02:12:06.171Z,36.7470
2022-10-01T02:12:17.240Z,36.7410
2022-10-01T02:12:28.299Z,36.7640
2022-10-01T02:12:39.371Z,36.8090
2022-10-01T02:12:50.450Z,36.8390
2022-10-01T02:13:01.509Z,36.8090
2022-10-01T02:13:12.561Z,36.8160
2022-10-01T02:13:23.622Z,36.8030
2022-10-01T02:13:34.690Z,36.8090
2022-10-01T02:13:45.752Z,36.7960
2022-10-01T02:13:56.812Z,36.8240
2022-10-01T02:14:07.861Z,36.8360
2022-10-01T02:14:18.912Z,36.8470
2022-10-01T02:14:29.980Z,36.8600
2022-10-01T02:14:41.044Z,36.8300
2022-10-01T02:14:52.101Z,36.8020